createdAt,value
2018-12-11T00:00:22.665Z,95.31
2018-12-11T00:00:48.816Z,95.41
2018-12-11T00:01:14.910Z,95.79
2018-12-11T00:01:41.045Z,95.79
2018-12-11T00:02:07.305Z,95.98
2018-12-11T00:02:33.427Z,95.7
2018-12-11T00:02:59.572Z,95.89
2018-12-11T00:03:25.894Z,95.79
2018-12-11T00:03:52.005Z,95.79
2018-12-11T00:04:18.111Z,95.6
2018-12-11T00:04:44.264Z,95.89
2018-12-11T00:05:10.371Z,96.26
2018-12-11T00:05:36.488Z,95.79
2018-12-11T00:06:02.579Z,95.89
2018-12-11T00:06:28.697Z,96.36
2018-12-11T00:06:54.795Z,96.36
2018-12-11T00:07:20.899Z,96.45
2018-12-11T00:07:47.014Z,96.26
2018-12-11T00:08:13.124Z,96.83
2018-12-11T00:08:39.226Z,96.93
2018-12-11T00:09:05.408Z,96.74
2018-12-11T00:09:31.501Z,96.93
2018-12-11T00:09:57.618Z,96.74
2018-12-11T00:10:23.724Z,97.41
2018-12-11T00:10:49.844Z,97.41
2018-12-11T00:11:15.962Z,96.83
2018-12-11T00:11:43.060Z,97.41
2018-12-11T00:12:09.168Z,97.5
2018-12-11T00:12:35.320Z,97.12
2018-12-11T00:13:01.436Z,97.02
2018-12-11T00:13:27.539Z,97.78
2018-12-11T00:13:53.648Z,97.69
2018-12-11T00:14:19.763Z,97.5
2018-12-11T00:14:45.865Z,97.97
2018-12-11T00:15:11.972Z,98.07
2018-12-11T00:15:38.134Z,98.07
2018-12-11T00:16:04.289Z,97.69
2018-12-11T00:16:30.378Z,98.26
2018-12-11T00:16:56.486Z,98.16
2018-12-11T00:17:22.595Z,98.16
2018-12-11T00:17:48.696Z,98.35
2018-12-11T00:18:14.844Z,98.16
2018-12-11T00:18:40.955Z,98.35
2018-12-11T00:19:07.068Z,98.26
2018-12-11T00:19:33.174Z,98.26
2018-12-11T00:19:59.277Z,98.35
2018-12-11T00:20:25.382Z,98.26
2018-12-11T00:20:51.519Z,98.64
2018-12-11T00:21:17.624Z,98.64
2018-12-11T00:21:43.754Z,98.73
2018-12-11T00:22:09.858Z,98.73
2018-12-11T00:22:35.965Z,98.64
2018-12-11T00:23:02.073Z,98.54
2018-12-11T00:23:28.185Z,98.73
2018-12-11T00:23:54.289Z,98.73
2018-12-11T00:24:20.424Z,98.73
2018-12-11T00:24:46.516Z,98.73
2018-12-11T00:25:12.657Z,98.73
2018-12-11T00:25:38.784Z,98.64
2018-12-11T00:26:04.900Z,98.83
2018-12-11T00:26:31.010Z,98.73
2018-12-11T00:26:57.159Z,98.64
2018-12-11T00:27:23.300Z,98.73
2018-12-11T00:27:49.405Z,98.73
2018-12-11T00:28:15.546Z,98.73
2018-12-11T00:28:41.659Z,98.83
2018-12-11T00:29:07.804Z,98.92
2018-12-11T00:29:33.913Z,98.54
2018-12-11T00:30:00.029Z,99.11
2018-12-11T00:30:26.152Z,98.73
2018-12-11T00:30:52.253Z,98.92
2018-12-11T00:31:18.396Z,99.11
2018-12-11T00:31:44.507Z,98.92
2018-12-11T00:32:10.637Z,98.92
2018-12-11T00:32:36.777Z,99.11
2018-12-11T00:33:02.908Z,98.83
2018-12-11T00:33:29.016Z,98.92
2018-12-11T00:33:55.132Z,98.92
2018-12-11T00:34:21.277Z,98.64
2018-12-11T00:34:47.393Z,99.11
2018-12-11T00:35:13.504Z,99.21
2018-12-11T00:35:39.619Z,98.73
2018-12-11T00:36:05.714Z,99.11
2018-12-11T00:36:31.824Z,98.73
2018-12-11T00:36:57.971Z,98.54
2018-12-11T00:37:24.084Z,98.26
2018-12-11T00:37:50.185Z,98.45
2018-12-11T00:38:16.318Z,98.07
2018-12-11T00:38:42.434Z,98.54
2018-12-11T00:39:08.544Z,98.07
2018-12-11T00:39:34.648Z,98.35
2018-12-11T00:40:00.747Z,98.07
2018-12-11T00:40:26.866Z,98.35
2018-12-11T00:40:52.965Z,97.97
2018-12-11T00:41:19.075Z,98.07
2018-12-11T00:41:45.194Z,98.26
2018-12-11T00:42:11.290Z,98.07
2018-12-11T00:42:37.406Z,98.07
2018-12-11T00:43:03.533Z,98.07
2018-12-11T00:43:29.667Z,97.97
2018-12-11T00:43:55.786Z,98.07
2018-12-11T00:44:21.883Z,98.54
2018-12-11T00:44:47.989Z,98.16
2018-12-11T00:45:14.096Z,98.92
2018-12-11T00:45:40.213Z,98.73
2018-12-11T00:46:06.326Z,98.83
2018-12-11T00:46:32.435Z,98.73
2018-12-11T00:46:58.561Z,99.11
2018-12-11T00:47:24.675Z,99.11
2018-12-11T00:47:50.800Z,98.64
2018-12-11T00:48:16.920Z,99.02
2018-12-11T00:48:43.030Z,98.92
2018-12-11T00:49:09.180Z,99.02
2018-12-11T00:49:35.290Z,98.73
2018-12-11T00:50:01.431Z,98.92
2018-12-11T00:50:27.579Z,98.92
2018-12-11T00:50:53.712Z,98.73
2018-12-11T00:51:19.817Z,98.45
2018-12-11T00:51:45.920Z,98.59
2018-12-11T00:52:12.036Z,98.68
2018-12-11T00:52:38.157Z,99.11
2018-12-11T00:53:04.254Z,98.87
2018-12-11T00:53:30.381Z,98.87
2018-12-11T00:53:56.499Z,98.64
2018-12-11T00:54:22.614Z,99.58
2018-12-11T00:54:48.709Z,99.58
2018-12-11T00:55:14.815Z,99.3
2018-12-11T00:55:40.934Z,99.3
2018-12-11T00:56:07.046Z,99.44
2018-12-11T00:56:33.173Z,99.35
2018-12-11T00:56:59.299Z,99.35
2018-12-11T00:57:25.401Z,99.44
2018-12-11T00:57:51.530Z,99.54
2018-12-11T00:58:17.643Z,99.21
2018-12-11T00:58:43.769Z,99.26
2018-12-11T00:59:09.892Z,99.3
2018-12-11T00:59:36.014Z,99.21
2018-12-11T01:00:02.119Z,99.3
2018-12-11T01:00:28.218Z,99.58
2018-12-11T01:00:54.327Z,98.97
2018-12-11T01:01:20.446Z,99.16
2018-12-11T01:01:46.539Z,99.44
2018-12-11T01:02:12.646Z,99.35
2018-12-11T01:02:38.794Z,99.35
2018-12-11T01:03:04.903Z,99.54
2018-12-11T01:03:31.008Z,99.58
2018-12-11T01:03:57.109Z,99.58
2018-12-11T01:04:23.224Z,99.63
2018-12-11T01:04:49.328Z,99.26
2018-12-11T01:05:15.469Z,99.68
2018-12-11T01:05:41.578Z,99.68
2018-12-11T01:06:07.684Z,99.54
2018-12-11T01:06:33.799Z,99.73
2018-12-11T01:06:59.911Z,99.35
2018-12-11T01:07:26.077Z,99.63
2018-12-11T01:07:52.129Z,99.99
2018-12-11T01:08:18.281Z,99.99
2018-12-11T01:08:44.386Z,99.99
2018-12-11T01:09:10.512Z,99.63
2018-12-11T01:09:36.601Z,99.63
2018-12-11T01:10:02.748Z,99.54
2018-12-11T01:10:28.891Z,99.44
2018-12-11T01:10:55.006Z,99.44
2018-12-11T01:11:21.148Z,99.54
2018-12-11T01:11:47.269Z,99.44
2018-12-11T01:12:13.375Z,99.99
2018-12-11T01:12:39.503Z,99.35
2018-12-11T01:13:05.652Z,99.91
2018-12-11T01:13:31.756Z,99.99
2018-12-11T01:13:57.876Z,99.99
2018-12-11T01:14:23.987Z,99.99
2018-12-11T01:14:50.093Z,99.99
2018-12-11T01:15:16.223Z,99.99
2018-12-11T01:15:42.346Z,99.99
2018-12-11T01:16:08.430Z,99.99
2018-12-11T01:16:34.537Z,99.99
2018-12-11T01:17:00.665Z,99.99
2018-12-11T01:17:26.774Z,99.99
2018-12-11T01:17:52.873Z,99.99
2018-12-11T01:18:19.024Z,99.99
2018-12-11T01:18:45.132Z,99.99
2018-12-11T01:19:11.235Z,99.99
2018-12-11T01:19:37.381Z,99.99
2018-12-11T01:20:03.457Z,99.99
2018-12-11T01:20:29.565Z,99.91
2018-12-11T01:20:55.688Z,99.91
2018-12-11T01:21:21.785Z,99.99
2018-12-11T01:21:47.893Z,99.99
2018-12-11T01:22:14.006Z,99.99
2018-12-11T01:22:40.138Z,99.82
2018-12-11T01:23:06.285Z,99.99
2018-12-11T01:23:32.394Z,99.99
2018-12-11T01:23:58.513Z,99.82
2018-12-11T01:24:24.613Z,99.63
2018-12-11T01:24:50.717Z,99.82
2018-12-11T01:25:16.872Z,99.99
2018-12-11T01:25:43.065Z,99.99
2018-12-11T01:26:09.146Z,99.63
2018-12-11T01:26:35.280Z,99.82
2018-12-11T01:27:01.419Z,99.63
2018-12-11T01:27:27.557Z,99.82
2018-12-11T01:27:53.702Z,99.63
2018-12-11T01:28:19.839Z,99.54
2018-12-11T01:28:45.978Z,99.82
2018-12-11T01:29:12.080Z,99.91
2018-12-11T01:29:38.190Z,99.82
2018-12-11T01:30:04.336Z,99.99
2018-12-11T01:30:30.468Z,99.73
2018-12-11T01:30:56.607Z,99.73
2018-12-11T01:31:22.729Z,99.63
2018-12-11T01:31:48.892Z,99.73
2018-12-11T01:32:14.998Z,99.54
2018-12-11T01:32:41.108Z,99.63
2018-12-11T01:33:07.236Z,99.82
2018-12-11T01:33:33.370Z,99.99
2018-12-11T01:33:59.474Z,99.82
2018-12-11T01:34:25.593Z,99.99
2018-12-11T01:34:51.692Z,99.82
2018-12-11T01:35:17.795Z,99.99
2018-12-11T01:35:43.935Z,99.99
2018-12-11T01:36:10.056Z,99.99
2018-12-11T01:36:36.169Z,99.63
2018-12-11T01:37:02.274Z,99.82
2018-12-11T01:37:28.393Z,99.82
2018-12-11T01:37:54.507Z,99.99
2018-12-11T01:38:20.607Z,99.73
2018-12-11T01:38:46.717Z,99.44
2018-12-11T01:39:12.877Z,99.63
2018-12-11T01:39:38.940Z,99.54
2018-12-11T01:40:05.071Z,99.82
2018-12-11T01:40:31.177Z,99.82
2018-12-11T01:40:57.278Z,99.35
2018-12-11T01:41:23.405Z,99.4
2018-12-11T01:41:49.496Z,99.49
2018-12-11T01:42:15.613Z,99.58
2018-12-11T01:42:41.736Z,99.54
2018-12-11T01:43:07.846Z,99.26
2018-12-11T01:43:34.009Z,99.16
2018-12-11T01:44:00.113Z,98.97
2018-12-11T01:44:26.223Z,99.63
2018-12-11T01:44:52.348Z,99.35
2018-12-11T01:45:18.451Z,99.54
2018-12-11T01:45:44.578Z,99.35
2018-12-11T01:46:10.679Z,99.26
2018-12-11T01:46:36.787Z,99.35
2018-12-11T01:47:02.903Z,99.44
2018-12-11T01:47:29.005Z,99.54
2018-12-11T01:47:55.146Z,99.44
2018-12-11T01:48:21.242Z,99.54
2018-12-11T01:48:47.352Z,99.26
2018-12-11T01:49:13.492Z,99.35
2018-12-11T01:49:39.607Z,98.68
2018-12-11T01:50:05.713Z,98.87
2018-12-11T01:50:31.831Z,99.06
2018-12-11T01:50:57.954Z,98.68
2018-12-11T01:51:24.058Z,98.78
2018-12-11T01:51:50.185Z,98.68
2018-12-11T01:52:16.334Z,98.87
2018-12-11T01:52:42.452Z,98.68
2018-12-11T01:53:08.584Z,99.06
2018-12-11T01:53:34.773Z,99.26
2018-12-11T01:54:00.850Z,98.49
2018-12-11T01:54:27.370Z,98.59
2018-12-11T01:54:53.486Z,99.06
2018-12-11T01:55:19.587Z,98.59
2018-12-11T01:55:45.738Z,98.49
2018-12-11T01:56:11.843Z,98.68
2018-12-11T01:56:37.979Z,98.68
2018-12-11T01:57:04.086Z,98.21
2018-12-11T01:57:30.191Z,98.11
2018-12-11T01:57:56.377Z,98.3
2018-12-11T01:58:22.432Z,98.49
2018-12-11T01:58:48.544Z,98.02
2018-12-11T01:59:14.693Z,98.11
2018-12-11T01:59:40.820Z,98.21
2018-12-11T02:00:06.972Z,98.02
2018-12-11T02:00:33.085Z,98.87
2018-12-11T02:00:59.190Z,98.21
2018-12-11T02:01:25.303Z,98.02
2018-12-11T02:01:51.437Z,98.21
2018-12-11T02:02:17.509Z,97.92
2018-12-11T02:02:43.613Z,98.21
2018-12-11T02:03:09.732Z,98.49
2018-12-11T02:03:37.206Z,98.3
2018-12-11T02:04:04.573Z,98.02
2018-12-11T02:04:32.503Z,98.02
2018-12-11T02:05:00.015Z,98.3
2018-12-11T02:05:27.862Z,98.49
2018-12-11T02:05:54.984Z,98.21
2018-12-11T02:06:21.092Z,98.02
2018-12-11T02:06:47.213Z,98.4
2018-12-11T02:07:13.316Z,98.21
2018-12-11T02:07:39.458Z,98.21
2018-12-11T02:08:05.578Z,98.11
2018-12-11T02:08:31.679Z,98.02
2018-12-11T02:08:57.783Z,98.21
2018-12-11T02:09:23.927Z,98.11
2018-12-11T02:09:50.035Z,98.02
2018-12-11T02:10:16.146Z,97.83
2018-12-11T02:10:42.255Z,97.92
2018-12-11T02:11:08.362Z,98.3
2018-12-11T02:11:34.466Z,97.74
2018-12-11T02:12:00.574Z,98.3
2018-12-11T02:12:26.696Z,97.55
2018-12-11T02:12:52.792Z,98.21
2018-12-11T02:13:18.924Z,97.64
2018-12-11T02:13:45.026Z,98.02
2018-12-11T02:14:11.146Z,98.02
2018-12-11T02:14:37.278Z,97.74
2018-12-11T02:15:03.415Z,97.55
2018-12-11T02:15:29.522Z,97.55
2018-12-11T02:15:55.656Z,98.11
2018-12-11T02:16:21.822Z,98.3
2018-12-11T02:16:47.936Z,98.3
2018-12-11T02:17:14.065Z,98.3
2018-12-11T02:17:40.197Z,98.3
2018-12-11T02:18:06.327Z,98.3
2018-12-11T02:18:32.435Z,98.21
2018-12-11T02:18:58.576Z,97.45
2018-12-11T02:19:24.726Z,97.64
2018-12-11T02:19:50.833Z,97.64
2018-12-11T02:20:16.967Z,97.74
2018-12-11T02:20:43.098Z,97.64
2018-12-11T02:21:09.202Z,97.64
2018-12-11T02:21:35.313Z,97.74
2018-12-11T02:22:02.412Z,97.55
2018-12-11T02:22:28.527Z,97.26
2018-12-11T02:22:54.670Z,97.55
2018-12-11T02:23:20.811Z,97.17
2018-12-11T02:23:46.928Z,97.17
2018-12-11T02:24:13.036Z,97.36
2018-12-11T02:24:39.189Z,97.36
2018-12-11T02:25:05.287Z,97.07
2018-12-11T02:25:31.397Z,97.26
2018-12-11T02:25:57.533Z,97.36
2018-12-11T02:26:23.643Z,97.17
2018-12-11T02:26:49.792Z,97.55
2018-12-11T02:27:15.907Z,97.64
2018-12-11T02:27:42.027Z,97.45
2018-12-11T02:28:08.164Z,96.69
2018-12-11T02:28:34.266Z,96.78
2018-12-11T02:29:00.420Z,96.78
2018-12-11T02:29:26.518Z,96.78
2018-12-11T02:29:52.667Z,96.88
2018-12-11T02:30:18.817Z,96.41
2018-12-11T02:30:44.994Z,96.5
2018-12-11T02:31:11.117Z,96.69
2018-12-11T02:31:37.238Z,96.12
2018-12-11T02:32:03.345Z,96.03
2018-12-11T02:32:29.459Z,95.84
2018-12-11T02:32:55.597Z,95.93
2018-12-11T02:33:21.737Z,96.12
2018-12-11T02:33:47.875Z,95.84
2018-12-11T02:34:13.980Z,96.22
2018-12-11T02:34:40.121Z,96.22
2018-12-11T02:35:06.223Z,96.22
2018-12-11T02:35:32.325Z,95.93
2018-12-11T02:35:58.465Z,96.12
2018-12-11T02:36:24.579Z,96.12
2018-12-11T02:36:50.727Z,96.03
2018-12-11T02:37:16.837Z,96.03
2018-12-11T02:37:42.966Z,95.84
2018-12-11T02:38:09.131Z,96.03
2018-12-11T02:38:35.231Z,95.84
2018-12-11T02:39:01.340Z,95.84
2018-12-11T02:39:27.446Z,95.84
2018-12-11T02:39:53.628Z,95.55
2018-12-11T02:40:19.738Z,95.65
2018-12-11T02:40:45.840Z,95.17
2018-12-11T02:41:11.973Z,95.65
2018-12-11T02:41:38.163Z,95.55
2018-12-11T02:42:04.294Z,95.55
2018-12-11T02:42:30.414Z,95.84
2018-12-11T02:42:56.551Z,95.65
2018-12-11T02:43:22.682Z,95.36
2018-12-11T02:43:48.798Z,95.27
2018-12-11T02:44:14.912Z,96.22
2018-12-11T02:44:41.026Z,96.22
2018-12-11T02:45:07.195Z,96.03
2018-12-11T02:45:33.311Z,95.46
2018-12-11T02:45:59.514Z,95.17
2018-12-11T02:46:25.616Z,95.07
2018-12-11T02:46:51.743Z,95.17
2018-12-11T02:47:17.900Z,95.27
2018-12-11T02:47:44.032Z,95.27
2018-12-11T02:48:10.146Z,95.07
2018-12-11T02:48:36.292Z,95.07
2018-12-11T02:49:02.409Z,95.17
2018-12-11T02:49:28.589Z,95.07
2018-12-11T02:49:54.699Z,94.89
2018-12-11T02:50:20.803Z,94.79
2018-12-11T02:50:46.914Z,95.27
2018-12-11T02:51:13.018Z,94.89
2018-12-11T02:51:39.148Z,94.98
2018-12-11T02:52:05.261Z,94.89
2018-12-11T02:52:31.383Z,95.17
2018-12-11T02:52:57.492Z,95.46
2018-12-11T02:53:23.645Z,95.17
2018-12-11T02:53:49.777Z,95.55
2018-12-11T02:54:15.922Z,95.74
2018-12-11T02:54:42.079Z,95.74
2018-12-11T02:55:08.190Z,95.74
2018-12-11T02:55:34.299Z,95.74
2018-12-11T02:56:00.421Z,95.74
2018-12-11T02:56:26.563Z,95.93
2018-12-11T02:56:52.690Z,95.84
2018-12-11T02:57:18.833Z,95.93
2018-12-11T02:57:44.967Z,95.27
2018-12-11T02:58:11.103Z,96.03
2018-12-11T02:58:37.207Z,95.46
2018-12-11T02:59:03.351Z,95.17
2018-12-11T02:59:29.493Z,94.98
2018-12-11T02:59:55.656Z,94.98
2018-12-11T03:00:21.783Z,95.55
2018-12-11T03:00:47.878Z,96.03
2018-12-11T03:01:13.995Z,95.65
2018-12-11T03:01:40.105Z,95.55
2018-12-11T03:02:06.224Z,95.93
2018-12-11T03:02:32.352Z,95.65
2018-12-11T03:02:58.458Z,95.55
2018-12-11T03:03:24.634Z,96.12
2018-12-11T03:03:50.778Z,96.12
2018-12-11T03:04:16.935Z,95.46
2018-12-11T03:04:43.064Z,96.22
2018-12-11T03:05:09.197Z,96.12
2018-12-11T03:05:35.306Z,96.22
2018-12-11T03:06:01.414Z,95.84
2018-12-11T03:06:27.615Z,95.84
2018-12-11T03:06:53.724Z,95.84
2018-12-11T03:07:19.860Z,95.84
2018-12-11T03:07:46.025Z,96.12
2018-12-11T03:08:12.126Z,96.41
2018-12-11T03:08:38.285Z,95.46
2018-12-11T03:09:04.419Z,95.55
2018-12-11T03:09:30.519Z,95.74
2018-12-11T03:09:56.629Z,95.74
2018-12-11T03:10:22.734Z,95.74
2018-12-11T03:10:48.836Z,95.36
2018-12-11T03:11:14.936Z,95.65
2018-12-11T03:11:41.038Z,95.93
2018-12-11T03:12:07.163Z,95.65
2018-12-11T03:12:33.272Z,95.46
2018-12-11T03:12:59.374Z,95.65
2018-12-11T03:13:25.524Z,95.65
2018-12-11T03:13:51.618Z,95.55
2018-12-11T03:14:17.757Z,95.46
2018-12-11T03:14:43.848Z,95.84
2018-12-11T03:15:09.962Z,95.93
2018-12-11T03:15:36.090Z,95.84
2018-12-11T03:16:02.200Z,96.22
2018-12-11T03:16:28.336Z,96.12
2018-12-11T03:16:54.468Z,95.93
2018-12-11T03:17:20.577Z,96.03
2018-12-11T03:17:46.715Z,96.03
2018-12-11T03:18:12.856Z,96.12
2018-12-11T03:18:38.958Z,95.93
2018-12-11T03:19:05.070Z,96.12
2018-12-11T03:19:31.224Z,96.41
2018-12-11T03:19:57.391Z,95.93
2018-12-11T03:20:23.480Z,95.93
2018-12-11T03:20:49.632Z,96.12
2018-12-11T03:21:15.749Z,96.03
2018-12-11T03:21:41.851Z,95.84
2018-12-11T03:22:07.968Z,95.93
2018-12-11T03:22:34.098Z,96.41
2018-12-11T03:23:00.232Z,96.59
2018-12-11T03:23:26.335Z,96.78
2018-12-11T03:23:52.457Z,96.59
2018-12-11T03:24:18.646Z,96.03
2018-12-11T03:24:44.795Z,95.84
2018-12-11T03:25:10.953Z,96.03
2018-12-11T03:25:37.059Z,96.03
2018-12-11T03:26:03.188Z,96.5
2018-12-11T03:26:29.323Z,96.12
2018-12-11T03:26:55.503Z,96.59
2018-12-11T03:27:21.605Z,96.59
2018-12-11T03:27:47.741Z,96.22
2018-12-11T03:28:13.860Z,96.41
2018-12-11T03:28:40.006Z,96.12
2018-12-11T03:29:06.137Z,96.03
2018-12-11T03:29:32.257Z,96.03
2018-12-11T03:29:58.377Z,96.03
2018-12-11T03:30:24.515Z,96.03
2018-12-11T03:30:50.745Z,95.93
2018-12-11T03:31:16.909Z,95.84
2018-12-11T03:31:43.057Z,96.03
2018-12-11T03:32:09.316Z,96.12
2018-12-11T03:32:35.489Z,95.93
2018-12-11T03:33:01.691Z,95.84
2018-12-11T03:33:27.844Z,96.03
2018-12-11T03:33:53.957Z,96.03
2018-12-11T03:34:20.151Z,95.84
2018-12-11T03:34:46.197Z,95.84
2018-12-11T03:35:12.316Z,96.03
2018-12-11T03:35:38.415Z,96.03
2018-12-11T03:36:04.541Z,95.93
2018-12-11T03:36:30.651Z,96.41
2018-12-11T03:36:56.743Z,96.78
2018-12-11T03:37:22.873Z,96.5
2018-12-11T03:37:48.991Z,96.31
2018-12-11T03:38:15.107Z,96.5
2018-12-11T03:38:41.211Z,96.41
2018-12-11T03:39:07.333Z,96.31
2018-12-11T03:39:33.447Z,96.5
2018-12-11T03:39:59.590Z,96.59
2018-12-11T03:40:25.729Z,96.5
2018-12-11T03:40:51.854Z,96.5
2018-12-11T03:41:17.948Z,96.59
2018-12-11T03:41:44.080Z,96.31
2018-12-11T03:42:10.207Z,96.5
2018-12-11T03:42:36.308Z,96.59
2018-12-11T03:43:02.452Z,95.93
2018-12-11T03:43:28.563Z,96.22
2018-12-11T03:43:54.668Z,96.69
2018-12-11T03:44:20.811Z,96.59
2018-12-11T03:44:46.918Z,96.59
2018-12-11T03:45:13.019Z,96.78
2018-12-11T03:45:39.179Z,96.59
2018-12-11T03:46:05.304Z,96.88
2018-12-11T03:46:31.416Z,96.59
2018-12-11T03:46:57.539Z,97.17
2018-12-11T03:47:23.651Z,97.26
2018-12-11T03:47:49.815Z,97.36
2018-12-11T03:48:15.923Z,96.97
2018-12-11T03:48:42.038Z,97.26
2018-12-11T03:49:08.146Z,97.36
2018-12-11T03:49:34.247Z,97.45
2018-12-11T03:50:00.355Z,97.36
2018-12-11T03:50:26.546Z,96.97
2018-12-11T03:50:52.666Z,96.97
2018-12-11T03:51:18.817Z,97.36
2018-12-11T03:51:44.984Z,97.36
2018-12-11T03:52:11.126Z,97.36
2018-12-11T03:52:38.294Z,96.97
2018-12-11T03:53:04.397Z,97.17
2018-12-11T03:53:30.519Z,97.36
2018-12-11T03:53:56.684Z,97.26
2018-12-11T03:54:22.791Z,97.36
2018-12-11T03:54:48.919Z,97.36
2018-12-11T03:55:15.077Z,97.07
2018-12-11T03:55:41.188Z,97.36
2018-12-11T03:56:07.294Z,97.55
2018-12-11T03:56:33.413Z,97.26
2018-12-11T03:56:59.530Z,97.55
2018-12-11T03:57:25.636Z,97.26
2018-12-11T03:57:51.753Z,96.88
2018-12-11T03:58:17.857Z,96.78
2018-12-11T03:58:43.974Z,97.55
2018-12-11T03:59:10.129Z,96.78
2018-12-11T03:59:36.273Z,97.26
2018-12-11T04:00:02.376Z,97.55
2018-12-11T04:00:28.471Z,97.26
2018-12-11T04:00:54.593Z,97.26
2018-12-11T04:01:20.704Z,97.17
2018-12-11T04:01:46.813Z,97.26
2018-12-11T04:02:12.914Z,97.36
2018-12-11T04:02:39.072Z,97.36
2018-12-11T04:03:05.212Z,97.07
2018-12-11T04:03:31.348Z,97.26
2018-12-11T04:03:57.452Z,97.36
2018-12-11T04:04:23.554Z,96.88
2018-12-11T04:04:49.697Z,97.36
2018-12-11T04:05:15.807Z,96.88
2018-12-11T04:05:41.905Z,97.26
2018-12-11T04:06:08.035Z,96.88
2018-12-11T04:06:34.166Z,97.17
2018-12-11T04:07:00.247Z,97.36
2018-12-11T04:07:26.403Z,97.45
2018-12-11T04:07:52.506Z,97.45
2018-12-11T04:08:18.633Z,97.17
2018-12-11T04:08:44.732Z,97.07
2018-12-11T04:09:10.837Z,97.17
2018-12-11T04:09:36.941Z,97.26
2018-12-11T04:10:03.098Z,97.17
2018-12-11T04:10:29.243Z,96.97
2018-12-11T04:10:55.388Z,97.74
2018-12-11T04:11:21.500Z,96.97
2018-12-11T04:11:47.614Z,97.17
2018-12-11T04:12:13.723Z,96.97
2018-12-11T04:12:39.829Z,96.97
2018-12-11T04:13:05.941Z,97.17
2018-12-11T04:13:32.079Z,97.36
2018-12-11T04:13:58.181Z,97.17
2018-12-11T04:14:24.288Z,97.17
2018-12-11T04:14:50.483Z,97.17
2018-12-11T04:15:16.597Z,97.26
2018-12-11T04:15:42.717Z,97.36
2018-12-11T04:16:08.836Z,97.17
2018-12-11T04:16:34.939Z,97.17
2018-12-11T04:17:01.049Z,97.26
2018-12-11T04:17:27.154Z,96.97
2018-12-11T04:17:53.305Z,97.17
2018-12-11T04:18:19.438Z,97.26
2018-12-11T04:18:45.569Z,97.74
2018-12-11T04:19:11.689Z,96.97
2018-12-11T04:19:37.843Z,97.74
2018-12-11T04:20:04.451Z,97.17
2018-12-11T04:20:30.562Z,97.55
2018-12-11T04:20:56.716Z,97.64
2018-12-11T04:21:22.909Z,97.45
2018-12-11T04:21:49.041Z,97.64
2018-12-11T04:22:15.171Z,97.64
2018-12-11T04:22:41.285Z,97.83
2018-12-11T04:23:07.423Z,98.21
2018-12-11T04:23:33.564Z,98.02
2018-12-11T04:23:59.681Z,98.11
2018-12-11T04:24:25.787Z,97.83
2018-12-11T04:24:51.915Z,98.02
2018-12-11T04:25:18.066Z,98.3
2018-12-11T04:25:44.189Z,98.49
2018-12-11T04:26:10.380Z,98.02
2018-12-11T04:26:36.462Z,98.68
2018-12-11T04:27:02.606Z,98.59
2018-12-11T04:27:28.773Z,98.59
2018-12-11T04:27:54.903Z,98.68
2018-12-11T04:28:21.020Z,98.68
2018-12-11T04:28:47.157Z,98.59
2018-12-11T04:29:13.310Z,98.97
2018-12-11T04:29:39.446Z,98.68
2018-12-11T04:30:05.591Z,98.68
2018-12-11T04:30:31.686Z,98.59
2018-12-11T04:30:57.829Z,98.87
2018-12-11T04:31:23.929Z,98.87
2018-12-11T04:31:50.040Z,98.49
2018-12-11T04:32:16.215Z,98.3
2018-12-11T04:32:42.356Z,98.4
2018-12-11T04:33:08.460Z,98.3
2018-12-11T04:33:34.658Z,98.3
2018-12-11T04:34:00.767Z,98.02
2018-12-11T04:34:26.876Z,98.11
2018-12-11T04:34:53.053Z,98.11
2018-12-11T04:35:19.162Z,98.02
2018-12-11T04:35:45.301Z,98.02
2018-12-11T04:36:11.407Z,98.11
2018-12-11T04:36:37.514Z,98.02
2018-12-11T04:37:03.628Z,98.11
2018-12-11T04:37:29.720Z,98.21
2018-12-11T04:37:55.830Z,98.49
2018-12-11T04:38:21.937Z,98.11
2018-12-11T04:38:48.053Z,97.92
2018-12-11T04:39:14.161Z,97.83
2018-12-11T04:39:40.318Z,97.74
2018-12-11T04:40:06.482Z,97.92
2018-12-11T04:40:32.583Z,98.21
2018-12-11T04:40:58.757Z,98.3
2018-12-11T04:41:24.858Z,98.4
2018-12-11T04:41:50.984Z,98.4
2018-12-11T04:42:17.096Z,98.21
2018-12-11T04:42:43.231Z,98.21
2018-12-11T04:43:09.398Z,97.92
2018-12-11T04:43:35.498Z,98.11
2018-12-11T04:44:01.645Z,98.11
2018-12-11T04:44:27.803Z,97.83
2018-12-11T04:44:53.912Z,98.11
2018-12-11T04:45:20.048Z,98.21
2018-12-11T04:45:46.130Z,98.11
2018-12-11T04:46:12.250Z,97.64
2018-12-11T04:46:38.430Z,98.02
2018-12-11T04:47:04.528Z,97.74
2018-12-11T04:47:30.637Z,97.92
2018-12-11T04:47:56.746Z,97.17
2018-12-11T04:48:22.842Z,97.55
2018-12-11T04:48:48.950Z,97.64
2018-12-11T04:49:15.067Z,97.26
2018-12-11T04:49:41.171Z,97.17
2018-12-11T04:50:07.288Z,97.36
2018-12-11T04:50:33.400Z,97.36
2018-12-11T04:50:59.541Z,97.17
2018-12-11T04:51:25.635Z,97.17
2018-12-11T04:51:51.744Z,97.36
2018-12-11T04:52:17.866Z,97.45
2018-12-11T04:52:43.981Z,97.36
2018-12-11T04:53:10.100Z,96.88
2018-12-11T04:53:36.227Z,97.07
2018-12-11T04:54:02.317Z,97.36
2018-12-11T04:54:28.418Z,97.26
2018-12-11T04:54:54.520Z,97.36
2018-12-11T04:55:20.629Z,97.36
2018-12-11T04:55:46.745Z,97.55
2018-12-11T04:56:12.846Z,96.97
2018-12-11T04:56:38.992Z,96.97
2018-12-11T04:57:05.083Z,97.17
2018-12-11T04:57:31.194Z,97.36
2018-12-11T04:57:57.316Z,97.36
2018-12-11T04:58:23.468Z,96.97
2018-12-11T04:58:49.573Z,97.36
2018-12-11T04:59:15.701Z,97.07
2018-12-11T04:59:41.813Z,96.97
2018-12-11T05:00:07.941Z,96.78
2018-12-11T05:00:34.126Z,96.69
2018-12-11T05:01:00.191Z,96.88
2018-12-11T05:01:26.293Z,96.88
2018-12-11T05:01:52.402Z,96.97
2018-12-11T05:02:18.510Z,96.69
2018-12-11T05:02:44.610Z,96.88
2018-12-11T05:03:10.727Z,96.78
2018-12-11T05:03:36.840Z,96.97
2018-12-11T05:04:02.951Z,96.97
2018-12-11T05:04:29.060Z,96.78
2018-12-11T05:04:55.173Z,96.78
2018-12-11T05:05:21.304Z,96.78
2018-12-11T05:05:47.408Z,96.78
2018-12-11T05:06:13.524Z,96.88
2018-12-11T05:06:39.634Z,96.78
2018-12-11T05:07:05.758Z,97.64
2018-12-11T05:07:31.897Z,97.36
2018-12-11T05:07:58.064Z,96.88
2018-12-11T05:08:24.162Z,97.26
2018-12-11T05:08:50.268Z,97.07
2018-12-11T05:09:16.378Z,96.97
2018-12-11T05:09:42.492Z,97.17
2018-12-11T05:10:08.590Z,97.36
2018-12-11T05:10:34.702Z,97.55
2018-12-11T05:11:00.798Z,97.17
2018-12-11T05:11:26.910Z,97.45
2018-12-11T05:11:53.025Z,98.11
2018-12-11T05:12:19.143Z,97.55
2018-12-11T05:12:45.278Z,98.21
2018-12-11T05:13:11.383Z,97.74
2018-12-11T05:13:37.503Z,97.83
2018-12-11T05:14:03.603Z,97.92
2018-12-11T05:14:29.714Z,98.21
2018-12-11T05:14:55.821Z,98.02
2018-12-11T05:15:21.941Z,98.3
2018-12-11T05:15:48.054Z,98.87
2018-12-11T05:16:14.178Z,98.68
2018-12-11T05:16:40.279Z,99.06
2018-12-11T05:17:06.389Z,99.06
2018-12-11T05:17:32.494Z,98.78
2018-12-11T05:17:58.609Z,98.87
2018-12-11T05:18:25.709Z,99.06
2018-12-11T05:18:51.812Z,98.87
2018-12-11T05:19:17.908Z,98.87
2018-12-11T05:19:44.016Z,98.78
2018-12-11T05:20:10.120Z,99.06
2018-12-11T05:20:36.221Z,98.78
2018-12-11T05:21:02.331Z,98.97
2018-12-11T05:21:28.434Z,99.26
2018-12-11T05:21:54.537Z,98.49
2018-12-11T05:22:20.649Z,98.59
2018-12-11T05:22:46.752Z,98.87
2018-12-11T05:23:12.859Z,98.68
2018-12-11T05:23:38.992Z,98.87
2018-12-11T05:24:05.124Z,98.97
2018-12-11T05:24:31.224Z,98.87
2018-12-11T05:24:57.334Z,98.68
2018-12-11T05:25:23.435Z,98.87
2018-12-11T05:25:49.536Z,98.68
2018-12-11T05:26:15.643Z,98.59
2018-12-11T05:26:41.752Z,98.87
2018-12-11T05:27:07.855Z,99.26
2018-12-11T05:27:33.962Z,98.68
2018-12-11T05:28:00.060Z,98.68
2018-12-11T05:28:26.204Z,98.11
2018-12-11T05:28:52.346Z,98.59
2018-12-11T05:29:18.448Z,98.3
2018-12-11T05:29:44.551Z,98.16
2018-12-11T05:30:10.653Z,98.11
2018-12-11T05:30:36.756Z,98.3
2018-12-11T05:31:02.862Z,98.3
2018-12-11T05:31:28.960Z,98.3
2018-12-11T05:31:55.068Z,98.21
2018-12-11T05:32:21.174Z,98.4
2018-12-11T05:32:47.283Z,98.68
2018-12-11T05:33:13.418Z,98.68
2018-12-11T05:33:39.539Z,98.59
2018-12-11T05:34:05.639Z,98.59
2018-12-11T05:34:31.750Z,98.68
2018-12-11T05:34:57.855Z,98.68
2018-12-11T05:35:24.299Z,98.87
2018-12-11T05:35:50.461Z,98.87
2018-12-11T05:36:16.569Z,98.87
2018-12-11T05:36:42.719Z,98.68
2018-12-11T05:37:08.851Z,99.16
2018-12-11T05:37:34.964Z,98.87